sensor_id;sensor_type;location;lat;lon;timestamp;pressure;altitude;pressure_sealevel;temperature;humidity
46574;BME280;32299;53.366;-1.544;2022-08-19T00:00:47;98367.96;;;20.20;51.23
46574;BME280;32299;53.366;-1.544;2022-08-19T00:03:14;98366.96;;;20.13;52.38
46574;BME280;32299;53.366;-1.544;2022-08-19T00:05:41;98364.23;;;20.14;52.35
46574;BME280;32299;53.366;-1.544;2022-08-19T00:08:09;98368.83;;;20.54;50.99
46574;BME280;32299;53.366;-1.544;2022-08-19T00:10:36;98369.24;;;19.64;52.50
46574;BME280;32299;53.366;-1.544;2022-08-19T00:13:03;98367.42;;;20.04;51.79
46574;BME280;32299;53.366;-1.544;2022-08-19T00:15:30;98365.32;;;20.26;50.67
46574;BME280;32299;53.366;-1.544;2022-08-19T00:17:57;98367.69;;;19.88;51.81
46574;BME280;32299;53.366;-1.544;2022-08-19T00:20:24;98372.13;;;20.10;51.10
46574;BME280;32299;53.366;-1.544;2022-08-19T00:22:52;98380.49;;;20.07;52.07
46574;BME280;32299;53.366;-1.544;2022-08-19T00:25:19;98388.91;;;19.98;50.90
46574;BME280;32299;53.366;-1.544;2022-08-19T00:27:46;98395.77;;;17.52;53.22
46574;BME280;32299;53.366;-1.544;2022-08-19T00:30:13;98397.68;;;18.10;51.94
46574;BME280;32299;53.366;-1.544;2022-08-19T00:32:41;98399.50;;;19.06;49.19
46574;BME280;32299;53.366;-1.544;2022-08-19T00:35:08;98397.59;;;17.76;49.76
46574;BME280;32299;53.366;-1.544;2022-08-19T00:37:35;98400.47;;;18.08;50.27
46574;BME280;32299;53.366;-1.544;2022-08-19T00:40:04;98410.57;;;19.03;48.26
46574;BME280;32299;53.366;-1.544;2022-08-19T00:42:32;98408.05;;;18.51;48.68
46574;BME280;32299;53.366;-1.544;2022-08-19T00:44:59;98410.30;;;19.06;47.53
46574;BME280;32299;53.366;-1.544;2022-08-19T00:47:27;98409.30;;;18.62;48.46
46574;BME280;32299;53.366;-1.544;2022-08-19T00:49:57;98412.97;;;18.66;47.77
46574;BME280;32299;53.366;-1.544;2022-08-19T00:52:27;98408.88;;;19.29;47.50
46574;BME280;32299;53.366;-1.544;2022-08-19T00:54:57;98408.42;;;19.34;47.27
46574;BME280;32299;53.366;-1.544;2022-08-19T00:57:38;98408.57;;;18.27;47.43
46574;BME280;32299;53.366;-1.544;2022-08-19T01:00:09;98407.37;;;19.13;46.88
46574;BME280;32299;53.366;-1.544;2022-08-19T01:02:38;98405.05;;;18.27;47.20
46574;BME280;32299;53.366;-1.544;2022-08-19T01:05:09;98408.76;;;18.91;45.28
46574;BME280;32299;53.366;-1.544;2022-08-19T01:07:39;98410.15;;;18.65;46.41
46574;BME280;32299;53.366;-1.544;2022-08-19T01:10:10;98414.31;;;18.59;46.25
46574;BME280;32299;53.366;-1.544;2022-08-19T01:12:38;98417.36;;;17.82;47.54
46574;BME280;32299;53.366;-1.544;2022-08-19T01:15:08;98418.49;;;17.88;46.85
46574;BME280;32299;53.366;-1.544;2022-08-19T01:17:38;98418.14;;;17.80;46.22
46574;BME280;32299;53.366;-1.544;2022-08-19T01:20:11;98418.62;;;17.60;45.72
46574;BME280;32299;53.366;-1.544;2022-08-19T01:22:43;98419.86;;;18.35;45.60
46574;BME280;32299;53.366;-1.544;2022-08-19T01:25:12;98419.95;;;18.56;45.50
46574;BME280;32299;53.366;-1.544;2022-08-19T01:27:41;98423.75;;;18.94;44.59
46574;BME280;32299;53.366;-1.544;2022-08-19T01:30:11;98429.63;;;18.12;44.99
46574;BME280;32299;53.366;-1.544;2022-08-19T01:32:39;98432.17;;;17.84;45.53
46574;BME280;32299;53.366;-1.544;2022-08-19T01:35:09;98422.43;;;18.79;44.04
46574;BME280;32299;53.366;-1.544;2022-08-19T01:37:46;98422.53;;;18.87;43.94
46574;BME280;32299;53.366;-1.544;2022-08-19T01:40:15;98425.88;;;18.86;43.86
46574;BME280;32299;53.366;-1.544;2022-08-19T01:42:43;98428.46;;;19.12;44.00
46574;BME280;32299;53.366;-1.544;2022-08-19T01:45:10;98427.12;;;19.08;43.84
46574;BME280;32299;53.366;-1.544;2022-08-19T01:47:38;98429.34;;;19.02;43.86
46574;BME280;32299;53.366;-1.544;2022-08-19T01:50:08;98428.33;;;18.61;44.36
46574;BME280;32299;53.366;-1.544;2022-08-19T01:52:35;98432.53;;;19.03;43.68
46574;BME280;32299;53.366;-1.544;2022-08-19T01:55:04;98424.06;;;18.34;44.58
46574;BME280;32299;53.366;-1.544;2022-08-19T01:57:32;98428.06;;;18.84;43.20
46574;BME280;32299;53.366;-1.544;2022-08-19T02:00:01;98430.82;;;18.46;44.16
46574;BME280;32299;53.366;-1.544;2022-08-19T02:02:28;98436.12;;;18.44;44.53
46574;BME280;32299;53.366;-1.544;2022-08-19T02:04:55;98438.28;;;18.89;43.69
46574;BME280;32299;53.366;-1.544;2022-08-19T02:07:22;98439.75;;;18.79;44.10
46574;BME280;32299;53.366;-1.544;2022-08-19T02:09:49;98439.74;;;18.91;43.82
46574;BME280;32299;53.366;-1.544;2022-08-19T02:12:16;98447.25;;;18.05;44.30
46574;BME280;32299;53.366;-1.544;2022-08-19T02:14:44;98449.43;;;18.32;44.71
46574;BME280;32299;53.366;-1.544;2022-08-19T02:17:11;98449.69;;;18.38;44.25
46574;BME280;32299;53.366;-1.544;2022-08-19T02:19:38;98456.07;;;18.68;44.14
46574;BME280;32299;53.366;-1.544;2022-08-19T02:22:06;98462.90;;;18.09;44.35
46574;BME280;32299;53.366;-1.544;2022-08-19T02:24:33;98460.58;;;18.07;44.52
46574;BME280;32299;53.366;-1.544;2022-08-19T02:27:00;98459.47;;;17.84;44.50
46574;BME280;32299;53.366;-1.544;2022-08-19T02:29:27;98462.75;;;18.12;44.18
46574;BME280;32299;53.366;-1.544;2022-08-19T02:31:55;98468.57;;;18.05;43.12
46574;BME280;32299;53.366;-1.544;2022-08-19T02:34:22;98469.42;;;18.53;43.68
46574;BME280;32299;53.366;-1.544;2022-08-19T02:36:49;98464.53;;;17.85;44.12
46574;BME280;32299;53.366;-1.544;2022-08-19T02:39:16;98464.41;;;17.48;43.64
46574;BME280;32299;53.366;-1.544;2022-08-19T02:41:43;98459.83;;;18.30;43.60
46574;BME280;32299;53.366;-1.544;2022-08-19T02:44:10;98460.75;;;18.06;43.77
46574;BME280;32299;53.366;-1.544;2022-08-19T02:46:37;98463.71;;;17.65;43.92
46574;BME280;32299;53.366;-1.544;2022-08-19T02:49:06;98467.00;;;17.31;44.50
46574;BME280;32299;53.366;-1.544;2022-08-19T02:51:37;98466.73;;;18.08;43.70
46574;BME280;32299;53.366;-1.544;2022-08-19T02:54:05;98466.59;;;17.99;43.75
46574;BME280;32299;53.366;-1.544;2022-08-19T02:56:35;98475.42;;;17.61;43.82
46574;BME280;32299;53.366;-1.544;2022-08-19T02:59:04;98476.23;;;17.10;44.21
46574;BME280;32299;53.366;-1.544;2022-08-19T03:01:32;98477.43;;;17.27;44.37
46574;BME280;32299;53.366;-1.544;2022-08-19T03:04:02;98475.99;;;16.79;45.02
46574;BME280;32299;53.366;-1.544;2022-08-19T03:06:30;98482.02;;;16.64;46.24
46574;BME280;32299;53.366;-1.544;2022-08-19T03:08:58;98485.15;;;17.26;43.97
46574;BME280;32299;53.366;-1.544;2022-08-19T03:11:28;98487.96;;;16.91;45.09
46574;BME280;32299;53.366;-1.544;2022-08-19T03:13:58;98487.86;;;17.39;44.12
46574;BME280;32299;53.366;-1.544;2022-08-19T03:16:27;98495.31;;;16.98;44.38
46574;BME280;32299;53.366;-1.544;2022-08-19T03:18:56;98497.63;;;17.42;44.48
46574;BME280;32299;53.366;-1.544;2022-08-19T03:21:27;98495.74;;;17.02;44.46
46574;BME280;32299;53.366;-1.544;2022-08-19T03:23:54;98496.39;;;17.52;43.54
46574;BME280;32299;53.366;-1.544;2022-08-19T03:26:22;98498.37;;;17.47;43.50
46574;BME280;32299;53.366;-1.544;2022-08-19T03:28:50;98496.55;;;17.68;43.65
46574;BME280;32299;53.366;-1.544;2022-08-19T03:31:19;98498.04;;;17.85;43.50
46574;BME280;32299;53.366;-1.544;2022-08-19T03:33:46;98501.58;;;17.76;43.37
46574;BME280;32299;53.366;-1.544;2022-08-19T03:36:15;98507.42;;;17.49;43.63
46574;BME280;32299;53.366;-1.544;2022-08-19T03:38:44;98505.66;;;17.52;43.22
46574;BME280;32299;53.366;-1.544;2022-08-19T03:41:14;98504.02;;;16.99;43.95
46574;BME280;32299;53.366;-1.544;2022-08-19T03:43:42;98507.35;;;17.49;43.71
46574;BME280;32299;53.366;-1.544;2022-08-19T03:46:11;98506.17;;;18.10;42.39
46574;BME280;32299;53.366;-1.544;2022-08-19T03:48:40;98510.57;;;18.09;43.24
46574;BME280;32299;53.366;-1.544;2022-08-19T03:51:14;98514.03;;;17.96;43.06
46574;BME280;32299;53.366;-1.544;2022-08-19T03:53:41;98516.82;;;17.92;43.05
46574;BME280;32299;53.366;-1.544;2022-08-19T03:56:09;98519.30;;;17.61;43.11
46574;BME280;32299;53.366;-1.544;2022-08-19T03:58:37;98515.24;;;18.12;42.84
46574;BME280;32299;53.366;-1.544;2022-08-19T04:01:08;98512.99;;;18.05;42.67
46574;BME280;32299;53.366;-1.544;2022-08-19T04:03:36;98511.43;;;18.20;42.63
46574;BME280;32299;53.366;-1.544;2022-08-19T04:06:10;98512.11;;;18.05;42.53
46574;BME280;32299;53.366;-1.544;2022-08-19T04:08:38;98517.76;;;17.69;43.16
46574;BME280;32299;53.366;-1.544;2022-08-19T04:11:08;98521.72;;;17.81;42.64
46574;BME280;32299;53.366;-1.544;2022-08-19T04:13:35;98521.36;;;18.08;42.73
46574;BME280;32299;53.366;-1.544;2022-08-19T04:16:03;98519.49;;;17.78;42.72
46574;BME280;32299;53.366;-1.544;2022-08-19T04:18:30;98524.80;;;17.68;42.76
46574;BME280;32299;53.366;-1.544;2022-08-19T04:20:58;98528.75;;;17.80;42.63
46574;BME280;32299;53.366;-1.544;2022-08-19T04:23:26;98532.89;;;18.05;42.29
46574;BME280;32299;53.366;-1.544;2022-08-19T04:25:54;98536.59;;;17.49;42.53
46574;BME280;32299;53.366;-1.544;2022-08-19T04:28:22;98540.29;;;17.76;42.73
46574;BME280;32299;53.366;-1.544;2022-08-19T04:30:54;98535.93;;;17.86;42.45
46574;BME280;32299;53.366;-1.544;2022-08-19T04:33:25;98534.39;;;17.66;42.84
46574;BME280;32299;53.366;-1.544;2022-08-19T04:35:52;98534.53;;;17.86;42.35
46574;BME280;32299;53.366;-1.544;2022-08-19T04:38:21;98535.03;;;17.81;42.94
46574;BME280;32299;53.366;-1.544;2022-08-19T04:40:50;98539.18;;;17.61;42.86
46574;BME280;32299;53.366;-1.544;2022-08-19T04:43:18;98543.77;;;17.53;42.75
46574;BME280;32299;53.366;-1.544;2022-08-19T04:45:46;98544.07;;;17.38;42.51
46574;BME280;32299;53.366;-1.544;2022-08-19T04:48:13;98549.61;;;17.21;42.83
46574;BME280;32299;53.366;-1.544;2022-08-19T04:50:43;98554.98;;;17.40;42.87
46574;BME280;32299;53.366;-1.544;2022-08-19T04:53:11;98556.25;;;17.34;43.06
46574;BME280;32299;53.366;-1.544;2022-08-19T04:55:41;98554.81;;;17.43;42.92
46574;BME280;32299;53.366;-1.544;2022-08-19T04:58:08;98557.99;;;17.47;41.88
46574;BME280;32299;53.366;-1.544;2022-08-19T05:00:38;98561.25;;;17.30;42.95
46574;BME280;32299;53.366;-1.544;2022-08-19T05:03:06;98565.89;;;17.26;43.01
46574;BME280;32299;53.366;-1.544;2022-08-19T05:05:33;98569.71;;;17.38;43.27
46574;BME280;32299;53.366;-1.544;2022-08-19T05:08:01;98572.37;;;17.14;43.29
46574;BME280;32299;53.366;-1.544;2022-08-19T05:10:28;98574.75;;;17.54;42.89
46574;BME280;32299;53.366;-1.544;2022-08-19T05:12:56;98575.82;;;17.07;43.20
46574;BME280;32299;53.366;-1.544;2022-08-19T05:15:23;98576.12;;;17.57;42.75
46574;BME280;32299;53.366;-1.544;2022-08-19T05:17:50;98575.04;;;17.12;43.00
46574;BME280;32299;53.366;-1.544;2022-08-19T05:20:17;98575.22;;;17.14;42.86
46574;BME280;32299;53.366;-1.544;2022-08-19T05:22:46;98577.66;;;17.46;42.85
46574;BME280;32299;53.366;-1.544;2022-08-19T05:25:16;98581.32;;;17.39;42.67
46574;BME280;32299;53.366;-1.544;2022-08-19T05:27:44;98584.22;;;16.93;43.03
46574;BME280;32299;53.366;-1.544;2022-08-19T05:30:12;98587.39;;;17.11;43.12
46574;BME280;32299;53.366;-1.544;2022-08-19T05:32:40;98591.92;;;17.20;42.87
46574;BME280;32299;53.366;-1.544;2022-08-19T05:35:09;98595.65;;;17.04;43.08
46574;BME280;32299;53.366;-1.544;2022-08-19T05:37:36;98603.97;;;16.97;43.19
46574;BME280;32299;53.366;-1.544;2022-08-19T05:40:05;98608.71;;;17.24;43.21
46574;BME280;32299;53.366;-1.544;2022-08-19T05:42:32;98612.56;;;17.03;43.28
46574;BME280;32299;53.366;-1.544;2022-08-19T05:45:00;98614.36;;;16.98;43.45
46574;BME280;32299;53.366;-1.544;2022-08-19T05:47:27;98616.72;;;16.93;44.36
46574;BME280;32299;53.366;-1.544;2022-08-19T05:49:54;98621.68;;;16.02;45.73
46574;BME280;32299;53.366;-1.544;2022-08-19T05:52:22;98619.03;;;16.33;45.58
46574;BME280;32299;53.366;-1.544;2022-08-19T05:54:49;98617.06;;;15.36;46.68
46574;BME280;32299;53.366;-1.544;2022-08-19T05:57:16;98619.26;;;15.74;46.18
46574;BME280;32299;53.366;-1.544;2022-08-19T05:59:44;98619.34;;;15.98;46.17
46574;BME280;32299;53.366;-1.544;2022-08-19T06:02:11;98615.51;;;15.65;47.44
46574;BME280;32299;53.366;-1.544;2022-08-19T06:04:38;98614.58;;;15.64;47.25
46574;BME280;32299;53.366;-1.544;2022-08-19T06:07:05;98612.74;;;16.13;46.79
46574;BME280;32299;53.366;-1.544;2022-08-19T06:09:33;98610.73;;;15.30;48.56
46574;BME280;32299;53.366;-1.544;2022-08-19T06:12:00;98606.14;;;15.27;47.42
46574;BME280;32299;53.366;-1.544;2022-08-19T06:14:31;98600.76;;;15.01;49.38
46574;BME280;32299;53.366;-1.544;2022-08-19T06:16:59;98601.55;;;15.57;47.56
46574;BME280;32299;53.366;-1.544;2022-08-19T06:19:26;98605.49;;;15.75;47.12
46574;BME280;32299;53.366;-1.544;2022-08-19T06:21:54;98610.68;;;15.79;46.73
46574;BME280;32299;53.366;-1.544;2022-08-19T06:24:23;98614.10;;;15.63;47.16
46574;BME280;32299;53.366;-1.544;2022-08-19T06:26:54;98619.72;;;15.84;47.17
46574;BME280;32299;53.366;-1.544;2022-08-19T06:29:23;98622.81;;;15.91;47.11
46574;BME280;32299;53.366;-1.544;2022-08-19T06:31:52;98626.83;;;15.77;46.76
46574;BME280;32299;53.366;-1.544;2022-08-19T06:34:21;98624.52;;;16.49;46.05
46574;BME280;32299;53.366;-1.544;2022-08-19T06:36:50;98622.54;;;16.92;45.12
46574;BME280;32299;53.366;-1.544;2022-08-19T06:39:21;98621.23;;;16.30;45.50
46574;BME280;32299;53.366;-1.544;2022-08-19T06:41:50;98621.73;;;15.21;47.89
46574;BME280;32299;53.366;-1.544;2022-08-19T06:44:18;98623.36;;;15.94;46.83
46574;BME280;32299;53.366;-1.544;2022-08-19T06:46:45;98625.14;;;15.64;47.44
46574;BME280;32299;53.366;-1.544;2022-08-19T06:49:13;98625.22;;;15.37;48.17
46574;BME280;32299;53.366;-1.544;2022-08-19T06:51:41;98623.97;;;14.99;48.53
46574;BME280;32299;53.366;-1.544;2022-08-19T06:54:09;98625.88;;;15.18;48.16
46574;BME280;32299;53.366;-1.544;2022-08-19T06:56:38;98630.03;;;15.32;48.22
46574;BME280;32299;53.366;-1.544;2022-08-19T06:59:06;98634.57;;;13.90;52.13
46574;BME280;32299;53.366;-1.544;2022-08-19T07:01:35;98631.82;;;16.12;47.13
46574;BME280;32299;53.366;-1.544;2022-08-19T07:04:04;98629.36;;;16.43;46.92
46574;BME280;32299;53.366;-1.544;2022-08-19T07:06:32;98630.54;;;16.10;46.43
46574;BME280;32299;53.366;-1.544;2022-08-19T07:08:59;98631.86;;;15.21;47.66
46574;BME280;32299;53.366;-1.544;2022-08-19T07:11:27;98639.14;;;14.70;50.02
46574;BME280;32299;53.366;-1.544;2022-08-19T07:13:54;98641.62;;;14.49;51.18
46574;BME280;32299;53.366;-1.544;2022-08-19T07:16:22;98639.75;;;15.67;47.61
46574;BME280;32299;53.366;-1.544;2022-08-19T07:18:51;98640.93;;;15.14;48.71
46574;BME280;32299;53.366;-1.544;2022-08-19T07:21:22;98642.59;;;15.31;48.19
46574;BME280;32299;53.366;-1.544;2022-08-19T07:23:50;98634.68;;;15.58;47.63
46574;BME280;32299;53.366;-1.544;2022-08-19T07:26:20;98638.99;;;13.86;51.41
46574;BME280;32299;53.366;-1.544;2022-08-19T07:28:48;98641.44;;;14.85;48.88
46574;BME280;32299;53.366;-1.544;2022-08-19T07:31:18;98639.13;;;15.70;48.28
46574;BME280;32299;53.366;-1.544;2022-08-19T07:33:47;98644.32;;;15.68;47.21
46574;BME280;32299;53.366;-1.544;2022-08-19T07:36:17;98644.72;;;15.51;48.04
46574;BME280;32299;53.366;-1.544;2022-08-19T07:38:46;98644.40;;;16.30;45.97
46574;BME280;32299;53.366;-1.544;2022-08-19T07:41:16;98645.18;;;16.62;46.04
46574;BME280;32299;53.366;-1.544;2022-08-19T07:43:44;98652.48;;;15.23;48.03
46574;BME280;32299;53.366;-1.544;2022-08-19T07:46:12;98654.63;;;15.94;45.57
46574;BME280;32299;53.366;-1.544;2022-08-19T07:48:41;98656.72;;;15.94;46.62
46574;BME280;32299;53.366;-1.544;2022-08-19T07:51:10;98657.23;;;15.31;46.71
46574;BME280;32299;53.366;-1.544;2022-08-19T07:53:37;98659.62;;;16.16;46.32
46574;BME280;32299;53.366;-1.544;2022-08-19T07:56:05;98659.82;;;15.41;46.98
46574;BME280;32299;53.366;-1.544;2022-08-19T07:58:37;98654.94;;;16.77;44.64
46574;BME280;32299;53.366;-1.544;2022-08-19T08:01:07;98668.65;;;15.10;45.20
46574;BME280;32299;53.366;-1.544;2022-08-19T08:03:37;98672.37;;;15.64;46.66
46574;BME280;32299;53.366;-1.544;2022-08-19T08:06:05;98674.50;;;16.45;45.15
46574;BME280;32299;53.366;-1.544;2022-08-19T08:08:32;98681.14;;;17.20;43.37
46574;BME280;32299;53.366;-1.544;2022-08-19T08:10:59;98681.58;;;17.24;42.89
46574;BME280;32299;53.366;-1.544;2022-08-19T08:13:28;98678.94;;;16.33;44.34
46574;BME280;32299;53.366;-1.544;2022-08-19T08:15:55;98679.86;;;16.42;43.93
46574;BME280;32299;53.366;-1.544;2022-08-19T08:18:23;98680.39;;;16.88;44.30
46574;BME280;32299;53.366;-1.544;2022-08-19T08:20:50;98683.19;;;16.88;43.37
46574;BME280;32299;53.366;-1.544;2022-08-19T08:23:17;98689.64;;;16.30;44.45
46574;BME280;32299;53.366;-1.544;2022-08-19T08:25:45;98692.61;;;17.26;41.80
46574;BME280;32299;53.366;-1.544;2022-08-19T08:28:12;98692.01;;;16.22;44.78
46574;BME280;32299;53.366;-1.544;2022-08-19T08:30:39;98690.92;;;15.72;44.66
46574;BME280;32299;53.366;-1.544;2022-08-19T08:33:06;98691.98;;;17.01;43.18
46574;BME280;32299;53.366;-1.544;2022-08-19T08:35:34;98695.65;;;15.90;43.66
46574;BME280;32299;53.366;-1.544;2022-08-19T08:38:02;98698.21;;;16.76;43.32
46574;BME280;32299;53.366;-1.544;2022-08-19T08:40:32;98698.84;;;16.36;44.03
46574;BME280;32299;53.366;-1.544;2022-08-19T08:43:07;98699.34;;;16.89;42.73
46574;BME280;32299;53.366;-1.544;2022-08-19T08:45:41;98696.85;;;16.45;41.53
46574;BME280;32299;53.366;-1.544;2022-08-19T08:48:18;98690.67;;;16.00;42.31
46574;BME280;32299;53.366;-1.544;2022-08-19T08:50:47;98690.77;;;15.77;42.07
46574;BME280;32299;53.366;-1.544;2022-08-19T08:53:20;98686.35;;;14.92;44.38
46574;BME280;32299;53.366;-1.544;2022-08-19T08:55:47;98687.09;;;15.71;42.65
46574;BME280;32299;53.366;-1.544;2022-08-19T08:58:19;98690.56;;;15.74;42.45
46574;BME280;32299;53.366;-1.544;2022-08-19T09:00:48;98689.21;;;17.16;40.33
46574;BME280;32299;53.366;-1.544;2022-08-19T09:03:19;98692.45;;;17.11;40.65
46574;BME280;32299;53.366;-1.544;2022-08-19T09:05:55;98693.55;;;17.47;39.48
46574;BME280;32299;53.366;-1.544;2022-08-19T09:08:40;98692.33;;;17.53;39.96
46574;BME280;32299;53.366;-1.544;2022-08-19T09:11:18;98699.98;;;17.38;39.67
46574;BME280;32299;53.366;-1.544;2022-08-19T09:13:57;98701.52;;;15.43;40.53
46574;BME280;32299;53.366;-1.544;2022-08-19T09:16:30;98703.18;;;17.06;39.56
46574;BME280;32299;53.366;-1.544;2022-08-19T09:19:01;98701.59;;;17.52;39.35
46574;BME280;32299;53.366;-1.544;2022-08-19T09:21:29;98699.95;;;18.14;39.07
46574;BME280;32299;53.366;-1.544;2022-08-19T09:23:56;98706.40;;;17.79;39.75
46574;BME280;32299;53.366;-1.544;2022-08-19T09:26:24;98706.41;;;18.69;37.66
46574;BME280;32299;53.366;-1.544;2022-08-19T09:28:52;98703.12;;;18.95;37.48
46574;BME280;32299;53.366;-1.544;2022-08-19T09:31:21;98705.93;;;17.49;37.94
46574;BME280;32299;53.366;-1.544;2022-08-19T09:33:50;98700.06;;;18.14;37.05
46574;BME280;32299;53.366;-1.544;2022-08-19T09:36:20;98709.36;;;17.77;37.17
46574;BME280;32299;53.366;-1.544;2022-08-19T09:38:47;98710.10;;;18.25;37.11
46574;BME280;32299;53.366;-1.544;2022-08-19T09:41:17;98706.16;;;18.01;36.49
46574;BME280;32299;53.366;-1.544;2022-08-19T09:43:46;98708.05;;;18.05;36.59
46574;BME280;32299;53.366;-1.544;2022-08-19T09:46:14;98699.97;;;18.48;36.56
46574;BME280;32299;53.366;-1.544;2022-08-19T09:48:42;98697.10;;;17.71;37.53
46574;BME280;32299;53.366;-1.544;2022-08-19T09:51:11;98701.99;;;18.11;36.92
46574;BME280;32299;53.366;-1.544;2022-08-19T09:53:39;98703.06;;;17.86;35.66
46574;BME280;32299;53.366;-1.544;2022-08-19T09:56:06;98709.07;;;18.32;35.21
46574;BME280;32299;53.366;-1.544;2022-08-19T09:58:34;98711.70;;;18.00;35.91
46574;BME280;32299;53.366;-1.544;2022-08-19T10:01:02;98714.97;;;18.03;35.86
46574;BME280;32299;53.366;-1.544;2022-08-19T10:03:33;98717.62;;;19.22;35.65
46574;BME280;32299;53.366;-1.544;2022-08-19T10:06:06;98720.17;;;17.97;36.90
46574;BME280;32299;53.366;-1.544;2022-08-19T10:08:36;98718.80;;;17.84;37.38
46574;BME280;32299;53.366;-1.544;2022-08-19T10:11:04;98718.90;;;17.84;36.91
46574;BME280;32299;53.366;-1.544;2022-08-19T10:13:32;98718.82;;;17.47;39.31
46574;BME280;32299;53.366;-1.544;2022-08-19T10:16:04;98709.89;;;18.33;38.66
46574;BME280;32299;53.366;-1.544;2022-08-19T10:18:32;98703.22;;;18.56;33.67
46574;BME280;32299;53.366;-1.544;2022-08-19T10:21:05;98697.33;;;18.81;37.14
46574;BME280;32299;53.366;-1.544;2022-08-19T10:23:33;98709.78;;;18.89;34.03
46574;BME280;32299;53.366;-1.544;2022-08-19T10:26:00;98707.22;;;19.77;33.88
46574;BME280;32299;53.366;-1.544;2022-08-19T10:28:28;98701.35;;;19.44;34.03
46574;BME280;32299;53.366;-1.544;2022-08-19T10:30:55;98702.03;;;19.26;34.47
46574;BME280;32299;53.366;-1.544;2022-08-19T10:33:23;98706.18;;;19.32;32.95
46574;BME280;32299;53.366;-1.544;2022-08-19T10:35:59;98712.73;;;18.52;33.93
46574;BME280;32299;53.366;-1.544;2022-08-19T10:38:26;98712.06;;;18.62;33.00
46574;BME280;32299;53.366;-1.544;2022-08-19T10:40:53;98708.35;;;20.04;35.02
46574;BME280;32299;53.366;-1.544;2022-08-19T10:43:20;98709.39;;;19.22;35.29
46574;BME280;32299;53.366;-1.544;2022-08-19T10:45:52;98710.55;;;19.94;35.18
46574;BME280;32299;53.366;-1.544;2022-08-19T10:48:19;98711.75;;;19.77;33.30
46574;BME280;32299;53.366;-1.544;2022-08-19T10:50:46;98712.22;;;19.41;36.21
46574;BME280;32299;53.366;-1.544;2022-08-19T10:53:13;98710.26;;;19.98;32.92
46574;BME280;32299;53.366;-1.544;2022-08-19T10:55:40;98707.73;;;19.82;33.08
46574;BME280;32299;53.366;-1.544;2022-08-19T10:58:12;98707.78;;;20.15;33.46
46574;BME280;32299;53.366;-1.544;2022-08-19T11:00:40;98705.13;;;20.28;31.09
46574;BME280;32299;53.366;-1.544;2022-08-19T11:03:07;98708.95;;;20.27;32.71
46574;BME280;32299;53.366;-1.544;2022-08-19T11:05:35;98711.84;;;19.09;33.32
46574;BME280;32299;53.366;-1.544;2022-08-19T11:08:03;98710.19;;;19.00;33.53
46574;BME280;32299;53.366;-1.544;2022-08-19T11:10:30;98707.66;;;19.46;33.89
46574;BME280;32299;53.366;-1.544;2022-08-19T11:12:58;98710.08;;;18.82;32.90
46574;BME280;32299;53.366;-1.544;2022-08-19T11:15:25;98703.24;;;19.38;35.70
46574;BME280;32299;53.366;-1.544;2022-08-19T11:17:52;98707.59;;;19.43;31.90
46574;BME280;32299;53.366;-1.544;2022-08-19T11:20:19;98711.21;;;19.67;31.57
46574;BME280;32299;53.366;-1.544;2022-08-19T11:22:46;98704.16;;;18.93;32.43
46574;BME280;32299;53.366;-1.544;2022-08-19T11:25:13;98704.82;;;18.50;33.73
46574;BME280;32299;53.366;-1.544;2022-08-19T11:27:41;98698.18;;;20.89;33.77
46574;BME280;32299;53.366;-1.544;2022-08-19T11:30:09;98703.28;;;19.56;31.87
46574;BME280;32299;53.366;-1.544;2022-08-19T11:32:37;98696.54;;;21.31;33.55
46574;BME280;32299;53.366;-1.544;2022-08-19T11:35:05;98691.12;;;21.77;31.54
46574;BME280;32299;53.366;-1.544;2022-08-19T11:37:32;98694.90;;;21.91;32.40
46574;BME280;32299;53.366;-1.544;2022-08-19T11:39:59;98696.59;;;21.96;30.74
46574;BME280;32299;53.366;-1.544;2022-08-19T11:42:26;98693.24;;;22.25;29.38
46574;BME280;32299;53.366;-1.544;2022-08-19T11:44:53;98690.04;;;21.98;28.15
46574;BME280;32299;53.366;-1.544;2022-08-19T11:47:20;98689.83;;;22.38;31.11
46574;BME280;32299;53.366;-1.544;2022-08-19T11:49:47;98691.63;;;22.26;30.41
46574;BME280;32299;53.366;-1.544;2022-08-19T11:52:14;98697.99;;;21.13;29.38
46574;BME280;32299;53.366;-1.544;2022-08-19T11:54:41;98704.57;;;21.93;28.55
46574;BME280;32299;53.366;-1.544;2022-08-19T11:57:08;98707.07;;;21.28;29.60
46574;BME280;32299;53.366;-1.544;2022-08-19T11:59:35;98700.86;;;22.35;31.24
46574;BME280;32299;53.366;-1.544;2022-08-19T12:02:02;98697.61;;;23.37;27.84
46574;BME280;32299;53.366;-1.544;2022-08-19T12:04:29;98707.95;;;21.44;28.60
46574;BME280;32299;53.366;-1.544;2022-08-19T12:06:56;98701.18;;;22.12;29.60
46574;BME280;32299;53.366;-1.544;2022-08-19T12:09:23;98706.32;;;22.14;30.35
46574;BME280;32299;53.366;-1.544;2022-08-19T12:11:50;98709.75;;;21.35;30.79
46574;BME280;32299;53.366;-1.544;2022-08-19T12:14:17;98714.94;;;20.82;30.01
46574;BME280;32299;53.366;-1.544;2022-08-19T12:16:45;98713.64;;;20.39;30.85
46574;BME280;32299;53.366;-1.544;2022-08-19T12:19:12;98706.26;;;22.05;31.37
46574;BME280;32299;53.366;-1.544;2022-08-19T12:21:39;98715.47;;;21.71;30.77
46574;BME280;32299;53.366;-1.544;2022-08-19T12:24:07;98715.90;;;21.46;32.22
46574;BME280;32299;53.366;-1.544;2022-08-19T12:26:34;98721.29;;;21.33;31.80
46574;BME280;32299;53.366;-1.544;2022-08-19T12:29:01;98722.46;;;19.60;34.22
46574;BME280;32299;53.366;-1.544;2022-08-19T12:31:29;98721.46;;;20.11;33.74
46574;BME280;32299;53.366;-1.544;2022-08-19T12:33:57;98721.08;;;20.64;32.87
46574;BME280;32299;53.366;-1.544;2022-08-19T12:36:25;98723.39;;;20.78;32.88
46574;BME280;32299;53.366;-1.544;2022-08-19T12:38:52;98722.07;;;20.52;33.40
46574;BME280;32299;53.366;-1.544;2022-08-19T12:41:20;98729.35;;;20.47;32.19
46574;BME280;32299;53.366;-1.544;2022-08-19T12:43:48;98724.79;;;21.01;32.25
46574;BME280;32299;53.366;-1.544;2022-08-19T12:46:16;98719.49;;;21.41;31.66
46574;BME280;32299;53.366;-1.544;2022-08-19T12:48:43;98718.90;;;21.23;31.10
46574;BME280;32299;53.366;-1.544;2022-08-19T12:51:14;98715.75;;;22.17;30.95
46574;BME280;32299;53.366;-1.544;2022-08-19T12:53:42;98723.46;;;20.14;30.57
46574;BME280;32299;53.366;-1.544;2022-08-19T12:56:11;98721.66;;;21.75;32.32